Auburn, Mississippi
Current Conditions -  °F | °C
As of 11:53 PM on Wednesday 28 Jan 2015 (Local Time) from KMCB Reporting Station
Clear Clear  
Wind Chill: 45°   Ceiling: Unl
Heat Index: 47°   Visibility: 10mi
Dew Point: 41°   Wind: 5mph
Humidity: 80%   Direction: 190°S
Pressure: 30.22"   Gusts: NA
Location:  31.3682°N, 90.6714°W
Report Text: KMCB 290553Z AUTO 19004KT 10SM CLR 08/05 A3022 RMK AO2 SLP231 T00830050 10156 20083 402110061 50006
Loading
Personal Weather Stations






























Interactive Weather Map New forecast layout! Learn more

10-Day Weather Forecast

Advertisements
Track Severe Weather on mobile